Alire, New Mexico
Current Conditions -  °F | °C
As of 9:55 PM on Friday 28 Nov 2014 (Local Time) from KLAM Reporting Station
Clear Clear  
Wind Chill: 48°   Ceiling: Unl
Heat Index: 48°   Visibility: 10mi
Dew Point:   Wind: 0mph
Humidity: 19%   Direction: NA
Pressure: 30.12"   Gusts: NA
Location:  36.4765°N, 106.58°W
Report Text: KLAM 290455Z AUTO 00000KT 10SM CLR 09/M13 A3012 RMK AO2 T00901135
Loading
Personal Weather Stations






























Interactive Weather Map New forecast layout! Learn more

10-Day Weather Forecast

Advertisements
Track Severe Weather on mobile